sensor_id;sensor_type;location;lat;lon;timestamp;temperature;humidity
15099;DHT22;33900;53.640;9.942;2023-03-31T00:00:11;13.80;92.30
15099;DHT22;33900;53.640;9.942;2023-03-31T00:02:37;13.80;92.30
15099;DHT22;33900;53.640;9.942;2023-03-31T00:05:06;13.80;92.30
15099;DHT22;33900;53.640;9.942;2023-03-31T00:07:32;13.80;92.30
15099;DHT22;33900;53.640;9.942;2023-03-31T00:09:58;13.80;92.30
15099;DHT22;33900;53.640;9.942;2023-03-31T00:12:26;13.80;92.30
15099;DHT22;33900;53.640;9.942;2023-03-31T00:14:52;13.80;92.30
15099;DHT22;33900;53.640;9.942;2023-03-31T00:17:17;13.80;92.20
15099;DHT22;33900;53.640;9.942;2023-03-31T00:19:43;13.80;92.20
15099;DHT22;33900;53.640;9.942;2023-03-31T00:22:08;13.80;92.10
15099;DHT22;33900;53.640;9.942;2023-03-31T00:24:34;13.80;92.00
15099;DHT22;33900;53.640;9.942;2023-03-31T00:27:01;13.80;92.00
15099;DHT22;33900;53.640;9.942;2023-03-31T00:29:27;13.80;92.00
15099;DHT22;33900;53.640;9.942;2023-03-31T00:31:53;13.80;92.00
15099;DHT22;33900;53.640;9.942;2023-03-31T00:34:20;13.80;92.00
15099;DHT22;33900;53.640;9.942;2023-03-31T00:36:45;13.70;91.90
15099;DHT22;33900;53.640;9.942;2023-03-31T00:39:15;13.70;91.90
15099;DHT22;33900;53.640;9.942;2023-03-31T00:41:42;13.70;91.90
15099;DHT22;33900;53.640;9.942;2023-03-31T00:44:21;13.70;91.90
15099;DHT22;33900;53.640;9.942;2023-03-31T00:46:53;13.60;92.00
15099;DHT22;33900;53.640;9.942;2023-03-31T00:49:27;13.60;92.00
15099;DHT22;33900;53.640;9.942;2023-03-31T00:51:55;13.50;92.10
15099;DHT22;33900;53.640;9.942;2023-03-31T00:54:22;13.60;92.10
15099;DHT22;33900;53.640;9.942;2023-03-31T00:56:50;13.50;92.10
15099;DHT22;33900;53.640;9.942;2023-03-31T00:59:20;13.60;92.10
15099;DHT22;33900;53.640;9.942;2023-03-31T01:01:46;13.60;92.10
15099;DHT22;33900;53.640;9.942;2023-03-31T01:04:14;13.60;92.10
15099;DHT22;33900;53.640;9.942;2023-03-31T01:06:48;13.60;92.00
15099;DHT22;33900;53.640;9.942;2023-03-31T01:09:16;13.50;92.00
15099;DHT22;33900;53.640;9.942;2023-03-31T01:11:42;13.60;91.90
15099;DHT22;33900;53.640;9.942;2023-03-31T01:14:09;13.60;91.90
15099;DHT22;33900;53.640;9.942;2023-03-31T01:16:35;13.50;91.90
15099;DHT22;33900;53.640;9.942;2023-03-31T01:19:05;13.60;91.90
15099;DHT22;33900;53.640;9.942;2023-03-31T01:21:47;13.60;91.90
15099;DHT22;33900;53.640;9.942;2023-03-31T01:40:34;13.50;91.90
15099;DHT22;33900;53.640;9.942;2023-03-31T01:43:09;13.50;91.90
15099;DHT22;33900;53.640;9.942;2023-03-31T01:45:49;13.50;92.00
15099;DHT22;33900;53.640;9.942;2023-03-31T01:48:22;13.50;92.00
15099;DHT22;33900;53.640;9.942;2023-03-31T01:50:57;13.40;91.90
15099;DHT22;33900;53.640;9.942;2023-03-31T01:56:29;13.50;92.00
15099;DHT22;33900;53.640;9.942;2023-03-31T01:59:00;13.50;92.00
15099;DHT22;33900;53.640;9.942;2023-03-31T02:01:32;13.50;92.00
15099;DHT22;33900;53.640;9.942;2023-03-31T02:04:02;13.40;91.90
15099;DHT22;33900;53.640;9.942;2023-03-31T02:06:32;13.40;92.00
15099;DHT22;33900;53.640;9.942;2023-03-31T02:09:01;13.40;92.00
15099;DHT22;33900;53.640;9.942;2023-03-31T02:11:28;13.40;92.00
15099;DHT22;33900;53.640;9.942;2023-03-31T02:13:54;13.40;92.00
15099;DHT22;33900;53.640;9.942;2023-03-31T02:16:21;13.40;92.00
15099;DHT22;33900;53.640;9.942;2023-03-31T02:18:48;13.40;92.10
15099;DHT22;33900;53.640;9.942;2023-03-31T02:21:17;13.40;92.10
15099;DHT22;33900;53.640;9.942;2023-03-31T02:23:43;13.40;92.10
15099;DHT22;33900;53.640;9.942;2023-03-31T02:26:14;13.40;92.10
15099;DHT22;33900;53.640;9.942;2023-03-31T02:28:40;13.40;92.10
15099;DHT22;33900;53.640;9.942;2023-03-31T02:31:26;13.30;92.10
15099;DHT22;33900;53.640;9.942;2023-03-31T02:33:53;13.30;92.10
15099;DHT22;33900;53.640;9.942;2023-03-31T02:36:19;13.40;92.10
15099;DHT22;33900;53.640;9.942;2023-03-31T02:39:06;13.30;92.10
15099;DHT22;33900;53.640;9.942;2023-03-31T02:41:32;13.30;92.10
15099;DHT22;33900;53.640;9.942;2023-03-31T02:43:58;13.30;92.10
15099;DHT22;33900;53.640;9.942;2023-03-31T02:46:25;13.30;92.10
15099;DHT22;33900;53.640;9.942;2023-03-31T02:48:52;13.30;92.10
15099;DHT22;33900;53.640;9.942;2023-03-31T02:59:32;13.30;92.00
15099;DHT22;33900;53.640;9.942;2023-03-31T03:02:09;13.30;92.00
15099;DHT22;33900;53.640;9.942;2023-03-31T03:07:22;13.40;92.00
15099;DHT22;33900;53.640;9.942;2023-03-31T03:10:13;13.40;92.00
15099;DHT22;33900;53.640;9.942;2023-03-31T03:12:40;13.30;91.90
15099;DHT22;33900;53.640;9.942;2023-03-31T03:15:14;13.30;92.00
15099;DHT22;33900;53.640;9.942;2023-03-31T03:17:41;13.30;92.00
15099;DHT22;33900;53.640;9.942;2023-03-31T03:20:08;13.30;92.00
15099;DHT22;33900;53.640;9.942;2023-03-31T03:22:35;13.30;92.00
15099;DHT22;33900;53.640;9.942;2023-03-31T03:25:02;13.30;92.00
15099;DHT22;33900;53.640;9.942;2023-03-31T03:27:27;13.30;92.00
15099;DHT22;33900;53.640;9.942;2023-03-31T03:29:53;13.30;92.00
15099;DHT22;33900;53.640;9.942;2023-03-31T03:32:19;13.30;92.00
15099;DHT22;33900;53.640;9.942;2023-03-31T03:34:44;13.30;92.00
15099;DHT22;33900;53.640;9.942;2023-03-31T03:37:10;13.30;92.00
15099;DHT22;33900;53.640;9.942;2023-03-31T03:39:36;13.30;92.00
15099;DHT22;33900;53.640;9.942;2023-03-31T03:42:01;13.30;92.00
15099;DHT22;33900;53.640;9.942;2023-03-31T03:44:27;13.30;92.00
15099;DHT22;33900;53.640;9.942;2023-03-31T03:46:53;13.20;91.90
15099;DHT22;33900;53.640;9.942;2023-03-31T03:49:19;13.30;91.90
15099;DHT22;33900;53.640;9.942;2023-03-31T03:51:44;13.30;91.90
15099;DHT22;33900;53.640;9.942;2023-03-31T03:54:10;13.30;91.90
15099;DHT22;33900;53.640;9.942;2023-03-31T03:56:36;13.30;91.80
15099;DHT22;33900;53.640;9.942;2023-03-31T03:59:01;13.30;91.80
15099;DHT22;33900;53.640;9.942;2023-03-31T04:01:27;13.30;91.80
15099;DHT22;33900;53.640;9.942;2023-03-31T04:03:53;13.30;91.80
15099;DHT22;33900;53.640;9.942;2023-03-31T04:06:18;13.30;91.80
15099;DHT22;33900;53.640;9.942;2023-03-31T04:08:44;13.30;91.80
15099;DHT22;33900;53.640;9.942;2023-03-31T04:11:14;13.30;91.80
15099;DHT22;33900;53.640;9.942;2023-03-31T04:13:41;13.30;91.80
15099;DHT22;33900;53.640;9.942;2023-03-31T04:16:07;13.20;91.80
15099;DHT22;33900;53.640;9.942;2023-03-31T04:18:33;13.20;91.80
15099;DHT22;33900;53.640;9.942;2023-03-31T04:21:01;13.20;91.90
15099;DHT22;33900;53.640;9.942;2023-03-31T04:25:56;13.20;91.90
15099;DHT22;33900;53.640;9.942;2023-03-31T04:28:21;13.20;91.90
15099;DHT22;33900;53.640;9.942;2023-03-31T04:30:48;13.20;91.80
15099;DHT22;33900;53.640;9.942;2023-03-31T04:33:14;13.20;91.80
15099;DHT22;33900;53.640;9.942;2023-03-31T04:35:43;13.20;91.80
15099;DHT22;33900;53.640;9.942;2023-03-31T04:38:20;13.20;91.80
15099;DHT22;33900;53.640;9.942;2023-03-31T04:40:47;13.20;91.80
15099;DHT22;33900;53.640;9.942;2023-03-31T04:43:13;13.20;91.80
15099;DHT22;33900;53.640;9.942;2023-03-31T04:45:39;13.20;91.80
15099;DHT22;33900;53.640;9.942;2023-03-31T04:48:04;13.20;91.80
15099;DHT22;33900;53.640;9.942;2023-03-31T04:50:30;13.20;91.80
15099;DHT22;33900;53.640;9.942;2023-03-31T04:52:57;13.20;91.80
15099;DHT22;33900;53.640;9.942;2023-03-31T04:55:22;13.20;91.80
15099;DHT22;33900;53.640;9.942;2023-03-31T04:57:48;13.20;91.80
15099;DHT22;33900;53.640;9.942;2023-03-31T05:00:13;13.20;91.80
15099;DHT22;33900;53.640;9.942;2023-03-31T05:02:39;13.20;91.80
15099;DHT22;33900;53.640;9.942;2023-03-31T05:05:05;13.30;91.80
15099;DHT22;33900;53.640;9.942;2023-03-31T05:07:31;13.20;91.70
15099;DHT22;33900;53.640;9.942;2023-03-31T05:09:56;13.30;92.10
15099;DHT22;33900;53.640;9.942;2023-03-31T05:12:22;13.20;91.80
15099;DHT22;33900;53.640;9.942;2023-03-31T05:14:48;13.20;91.70
15099;DHT22;33900;53.640;9.942;2023-03-31T05:17:14;13.20;91.80
15099;DHT22;33900;53.640;9.942;2023-03-31T05:19:42;13.20;91.80
15099;DHT22;33900;53.640;9.942;2023-03-31T05:22:12;13.20;91.80
15099;DHT22;33900;53.640;9.942;2023-03-31T05:24:38;13.30;91.80
15099;DHT22;33900;53.640;9.942;2023-03-31T05:27:03;13.30;91.80
15099;DHT22;33900;53.640;9.942;2023-03-31T05:29:29;13.30;91.80
15099;DHT22;33900;53.640;9.942;2023-03-31T05:31:55;13.30;91.80
15099;DHT22;33900;53.640;9.942;2023-03-31T05:34:21;13.30;91.80
15099;DHT22;33900;53.640;9.942;2023-03-31T05:36:46;13.30;91.70
15099;DHT22;33900;53.640;9.942;2023-03-31T05:39:14;13.30;91.70
15099;DHT22;33900;53.640;9.942;2023-03-31T05:41:40;13.30;91.70
15099;DHT22;33900;53.640;9.942;2023-03-31T05:44:06;13.30;91.70
15099;DHT22;33900;53.640;9.942;2023-03-31T05:46:31;13.30;91.70
15099;DHT22;33900;53.640;9.942;2023-03-31T05:48:57;13.20;91.70
15099;DHT22;33900;53.640;9.942;2023-03-31T05:51:23;13.20;91.80
15099;DHT22;33900;53.640;9.942;2023-03-31T05:53:49;13.20;91.80
15099;DHT22;33900;53.640;9.942;2023-03-31T05:56:14;13.20;91.90
15099;DHT22;33900;53.640;9.942;2023-03-31T05:58:40;13.20;91.90
15099;DHT22;33900;53.640;9.942;2023-03-31T06:01:07;13.20;91.90
15099;DHT22;33900;53.640;9.942;2023-03-31T06:03:35;13.20;91.80
15099;DHT22;33900;53.640;9.942;2023-03-31T06:06:01;13.20;91.80
15099;DHT22;33900;53.640;9.942;2023-03-31T06:08:28;13.20;91.80
15099;DHT22;33900;53.640;9.942;2023-03-31T06:10:53;13.20;91.80
15099;DHT22;33900;53.640;9.942;2023-03-31T06:13:19;13.20;91.90
15099;DHT22;33900;53.640;9.942;2023-03-31T06:15:51;13.20;91.90
15099;DHT22;33900;53.640;9.942;2023-03-31T06:18:17;13.20;91.90
15099;DHT22;33900;53.640;9.942;2023-03-31T06:20:43;13.30;91.90
15099;DHT22;33900;53.640;9.942;2023-03-31T06:23:08;13.30;91.90
15099;DHT22;33900;53.640;9.942;2023-03-31T06:25:36;13.30;91.80
15099;DHT22;33900;53.640;9.942;2023-03-31T06:28:02;13.30;91.80
15099;DHT22;33900;53.640;9.942;2023-03-31T06:30:27;13.30;91.80
15099;DHT22;33900;53.640;9.942;2023-03-31T06:32:53;13.30;91.80
15099;DHT22;33900;53.640;9.942;2023-03-31T06:35:18;13.30;91.80
15099;DHT22;33900;53.640;9.942;2023-03-31T06:37:44;13.40;91.80
15099;DHT22;33900;53.640;9.942;2023-03-31T06:40:10;13.40;91.80
15099;DHT22;33900;53.640;9.942;2023-03-31T06:42:36;13.40;91.80
15099;DHT22;33900;53.640;9.942;2023-03-31T06:45:01;13.40;91.70
15099;DHT22;33900;53.640;9.942;2023-03-31T06:47:27;13.40;91.70
15099;DHT22;33900;53.640;9.942;2023-03-31T06:49:52;13.40;91.70
15099;DHT22;33900;53.640;9.942;2023-03-31T06:52:18;13.40;91.70
15099;DHT22;33900;53.640;9.942;2023-03-31T06:54:43;13.50;91.70
15099;DHT22;33900;53.640;9.942;2023-03-31T06:57:09;13.40;91.70
15099;DHT22;33900;53.640;9.942;2023-03-31T06:59:35;13.50;91.70
15099;DHT22;33900;53.640;9.942;2023-03-31T07:02:01;13.50;91.70
15099;DHT22;33900;53.640;9.942;2023-03-31T07:04:26;13.50;91.70
15099;DHT22;33900;53.640;9.942;2023-03-31T07:06:52;13.50;91.60
15099;DHT22;33900;53.640;9.942;2023-03-31T07:09:18;13.50;91.60
15099;DHT22;33900;53.640;9.942;2023-03-31T07:11:45;13.60;91.70
15099;DHT22;33900;53.640;9.942;2023-03-31T07:14:11;13.50;91.60
15099;DHT22;33900;53.640;9.942;2023-03-31T07:16:36;13.50;91.60
15099;DHT22;33900;53.640;9.942;2023-03-31T07:19:02;13.60;92.00
15099;DHT22;33900;53.640;9.942;2023-03-31T07:21:30;13.60;91.60
15099;DHT22;33900;53.640;9.942;2023-03-31T07:23:56;13.60;91.60
15099;DHT22;33900;53.640;9.942;2023-03-31T07:26:23;13.60;91.60
15099;DHT22;33900;53.640;9.942;2023-03-31T07:28:48;13.60;91.60
15099;DHT22;33900;53.640;9.942;2023-03-31T07:31:14;13.60;91.30
15099;DHT22;33900;53.640;9.942;2023-03-31T07:33:40;13.60;91.50
15099;DHT22;33900;53.640;9.942;2023-03-31T07:36:06;13.60;91.60
15099;DHT22;33900;53.640;9.942;2023-03-31T07:38:32;13.60;91.60
15099;DHT22;33900;53.640;9.942;2023-03-31T07:40:58;13.70;91.70
15099;DHT22;33900;53.640;9.942;2023-03-31T07:43:24;13.70;91.60
15099;DHT22;33900;53.640;9.942;2023-03-31T07:45:50;13.70;91.60
15099;DHT22;33900;53.640;9.942;2023-03-31T07:48:15;13.70;91.60
15099;DHT22;33900;53.640;9.942;2023-03-31T07:50:41;13.70;91.50
15099;DHT22;33900;53.640;9.942;2023-03-31T07:53:16;13.80;91.50
15099;DHT22;33900;53.640;9.942;2023-03-31T07:55:42;13.80;91.50
15099;DHT22;33900;53.640;9.942;2023-03-31T07:58:07;13.80;91.50
15099;DHT22;33900;53.640;9.942;2023-03-31T08:00:33;13.80;91.50
15099;DHT22;33900;53.640;9.942;2023-03-31T08:02:58;13.80;91.50
15099;DHT22;33900;53.640;9.942;2023-03-31T08:05:25;13.80;91.50
15099;DHT22;33900;53.640;9.942;2023-03-31T08:07:52;13.80;91.50
15099;DHT22;33900;53.640;9.942;2023-03-31T08:10:19;13.80;91.50
15099;DHT22;33900;53.640;9.942;2023-03-31T08:12:45;13.90;91.50
15099;DHT22;33900;53.640;9.942;2023-03-31T08:15:11;13.90;91.50
15099;DHT22;33900;53.640;9.942;2023-03-31T08:17:36;13.90;91.50
15099;DHT22;33900;53.640;9.942;2023-03-31T08:20:03;13.90;91.40
15099;DHT22;33900;53.640;9.942;2023-03-31T08:22:31;13.90;91.40
15099;DHT22;33900;53.640;9.942;2023-03-31T08:24:56;13.90;91.40
15099;DHT22;33900;53.640;9.942;2023-03-31T08:27:22;13.90;91.40
15099;DHT22;33900;53.640;9.942;2023-03-31T08:29:47;13.90;91.40
15099;DHT22;33900;53.640;9.942;2023-03-31T08:32:14;13.90;91.40
15099;DHT22;33900;53.640;9.942;2023-03-31T08:34:40;13.90;91.40
15099;DHT22;33900;53.640;9.942;2023-03-31T08:37:07;13.90;91.40
15099;DHT22;33900;53.640;9.942;2023-03-31T08:39:33;13.90;91.40
15099;DHT22;33900;53.640;9.942;2023-03-31T08:42:02;13.90;91.50
15099;DHT22;33900;53.640;9.942;2023-03-31T08:46:56;13.80;91.40
15099;DHT22;33900;53.640;9.942;2023-03-31T08:49:22;13.80;91.50
15099;DHT22;33900;53.640;9.942;2023-03-31T08:52:08;13.80;91.50
15099;DHT22;33900;53.640;9.942;2023-03-31T08:54:40;13.80;91.60
15099;DHT22;33900;53.640;9.942;2023-03-31T08:57:19;13.70;91.60
15099;DHT22;33900;53.640;9.942;2023-03-31T08:59:46;13.70;91.60
15099;DHT22;33900;53.640;9.942;2023-03-31T09:02:25;13.70;91.60
15099;DHT22;33900;53.640;9.942;2023-03-31T09:07:23;13.70;91.70
15099;DHT22;33900;53.640;9.942;2023-03-31T09:18:00;13.80;91.60
15099;DHT22;33900;53.640;9.942;2023-03-31T09:20:29;13.80;91.60
15099;DHT22;33900;53.640;9.942;2023-03-31T09:23:00;13.80;91.60
15099;DHT22;33900;53.640;9.942;2023-03-31T09:25:30;13.80;91.60
15099;DHT22;33900;53.640;9.942;2023-03-31T09:27:57;13.80;91.60
15099;DHT22;33900;53.640;9.942;2023-03-31T09:30:30;13.80;91.60
15099;DHT22;33900;53.640;9.942;2023-03-31T09:33:10;13.80;91.60
15099;DHT22;33900;53.640;9.942;2023-03-31T09:35:36;13.80;91.60
15099;DHT22;33900;53.640;9.942;2023-03-31T09:38:02;13.80;91.60
15099;DHT22;33900;53.640;9.942;2023-03-31T09:40:28;13.80;91.70
15099;DHT22;33900;53.640;9.942;2023-03-31T09:43:03;13.80;91.70
15099;DHT22;33900;53.640;9.942;2023-03-31T09:45:30;13.80;91.70
15099;DHT22;33900;53.640;9.942;2023-03-31T09:48:00;13.80;91.60
15099;DHT22;33900;53.640;9.942;2023-03-31T09:50:26;13.70;91.60
15099;DHT22;33900;53.640;9.942;2023-03-31T09:52:55;13.80;91.70
15099;DHT22;33900;53.640;9.942;2023-03-31T09:55:23;13.80;91.70
15099;DHT22;33900;53.640;9.942;2023-03-31T09:57:51;13.80;91.70
15099;DHT22;33900;53.640;9.942;2023-03-31T10:00:18;13.80;91.70
15099;DHT22;33900;53.640;9.942;2023-03-31T10:02:51;13.80;91.80
15099;DHT22;33900;53.640;9.942;2023-03-31T10:05:38;13.80;91.80
15099;DHT22;33900;53.640;9.942;2023-03-31T10:10:50;13.80;92.00
15099;DHT22;33900;53.640;9.942;2023-03-31T10:13:18;13.80;92.10
15099;DHT22;33900;53.640;9.942;2023-03-31T10:15:45;13.80;92.10
15099;DHT22;33900;53.640;9.942;2023-03-31T10:18:12;13.80;92.10
15099;DHT22;33900;53.640;9.942;2023-03-31T10:20:38;13.80;92.30
15099;DHT22;33900;53.640;9.942;2023-03-31T10:23:15;13.80;92.40
15099;DHT22;33900;53.640;9.942;2023-03-31T10:25:42;13.80;92.50
15099;DHT22;33900;53.640;9.942;2023-03-31T10:28:09;13.70;92.80
15099;DHT22;33900;53.640;9.942;2023-03-31T10:30:36;13.70;92.70
15099;DHT22;33900;53.640;9.942;2023-03-31T10:33:04;13.80;92.60
15099;DHT22;33900;53.640;9.942;2023-03-31T10:35:32;13.80;92.50
15099;DHT22;33900;53.640;9.942;2023-03-31T10:38:02;13.80;92.70
15099;DHT22;33900;53.640;9.942;2023-03-31T10:40:29;13.80;92.60
15099;DHT22;33900;53.640;9.942;2023-03-31T10:43:03;13.80;92.50
15099;DHT22;33900;53.640;9.942;2023-03-31T10:45:35;13.90;92.60
15099;DHT22;33900;53.640;9.942;2023-03-31T10:48:02;13.80;92.60
15099;DHT22;33900;53.640;9.942;2023-03-31T10:50:29;13.90;92.50
15099;DHT22;33900;53.640;9.942;2023-03-31T10:53:00;13.90;92.50
15099;DHT22;33900;53.640;9.942;2023-03-31T10:55:28;13.90;92.40
15099;DHT22;33900;53.640;9.942;2023-03-31T10:58:01;13.90;92.50
15099;DHT22;33900;53.640;9.942;2023-03-31T11:00:39;13.90;92.50
15099;DHT22;33900;53.640;9.942;2023-03-31T11:05:55;14.00;92.50
15099;DHT22;33900;53.640;9.942;2023-03-31T11:11:20;14.10;92.40
15099;DHT22;33900;53.640;9.942;2023-03-31T11:13:56;14.10;92.40
15099;DHT22;33900;53.640;9.942;2023-03-31T11:16:39;14.10;92.40
15099;DHT22;33900;53.640;9.942;2023-03-31T11:22:04;14.10;92.50
15099;DHT22;33900;53.640;9.942;2023-03-31T11:34:56;14.20;92.50
15099;DHT22;33900;53.640;9.942;2023-03-31T11:37:39;14.20;92.50
15099;DHT22;33900;53.640;9.942;2023-03-31T11:43:06;14.30;92.40
15099;DHT22;33900;53.640;9.942;2023-03-31T11:46:46;14.30;92.50
15099;DHT22;33900;53.640;9.942;2023-03-31T11:51:56;14.20;92.70
15099;DHT22;33900;53.640;9.942;2023-03-31T11:54:23;14.20;92.70
15099;DHT22;33900;53.640;9.942;2023-03-31T11:56:50;14.20;92.70
15099;DHT22;33900;53.640;9.942;2023-03-31T11:59:16;14.20;92.80
15099;DHT22;33900;53.640;9.942;2023-03-31T12:04:37;14.10;93.20
15099;DHT22;33900;53.640;9.942;2023-03-31T12:07:09;14.00;93.20
15099;DHT22;33900;53.640;9.942;2023-03-31T12:17:38;14.10;92.90
15099;DHT22;33900;53.640;9.942;2023-03-31T12:20:20;14.00;92.80
15099;DHT22;33900;53.640;9.942;2023-03-31T12:22:49;14.00;92.80
15099;DHT22;33900;53.640;9.942;2023-03-31T12:25:16;14.00;92.80
15099;DHT22;33900;53.640;9.942;2023-03-31T12:27:44;14.00;92.80
15099;DHT22;33900;53.640;9.942;2023-03-31T12:32:40;14.00;92.90
15099;DHT22;33900;53.640;9.942;2023-03-31T12:35:25;13.90;93.00
15099;DHT22;33900;53.640;9.942;2023-03-31T12:40:36;13.80;93.40
15099;DHT22;33900;53.640;9.942;2023-03-31T12:48:44;13.70;93.50
15099;DHT22;33900;53.640;9.942;2023-03-31T12:51:24;13.70;93.40
15099;DHT22;33900;53.640;9.942;2023-03-31T12:56:17;13.80;93.50
15099;DHT22;33900;53.640;9.942;2023-03-31T12:58:43;13.70;93.60
15099;DHT22;33900;53.640;9.942;2023-03-31T13:01:11;13.70;93.50
15099;DHT22;33900;53.640;9.942;2023-03-31T13:03:41;13.80;93.50
15099;DHT22;33900;53.640;9.942;2023-03-31T13:08:56;13.70;93.60
15099;DHT22;33900;53.640;9.942;2023-03-31T13:14:19;13.70;94.00
15099;DHT22;33900;53.640;9.942;2023-03-31T13:16:47;13.70;94.10
15099;DHT22;33900;53.640;9.942;2023-03-31T13:21:57;13.70;93.80
15099;DHT22;33900;53.640;9.942;2023-03-31T13:24:24;13.80;93.80
15099;DHT22;33900;53.640;9.942;2023-03-31T13:26:51;13.90;93.80
15099;DHT22;33900;53.640;9.942;2023-03-31T13:29:22;13.80;93.70
15099;DHT22;33900;53.640;9.942;2023-03-31T13:34:27;13.90;93.90
15099;DHT22;33900;53.640;9.942;2023-03-31T13:39:26;13.90;94.00
15099;DHT22;33900;53.640;9.942;2023-03-31T13:44:48;14.00;94.30
15099;DHT22;33900;53.640;9.942;2023-03-31T13:47:27;13.90;94.50
15099;DHT22;33900;53.640;9.942;2023-03-31T13:50:16;14.00;94.50
15099;DHT22;33900;53.640;9.942;2023-03-31T13:52:57;14.00;94.90
15099;DHT22;33900;53.640;9.942;2023-03-31T13:58:05;14.00;94.60
15099;DHT22;33900;53.640;9.942;2023-03-31T14:05:30;14.10;94.50
15099;DHT22;33900;53.640;9.942;2023-03-31T14:07:58;14.10;94.70
15099;DHT22;33900;53.640;9.942;2023-03-31T14:10:25;14.10;94.60
15099;DHT22;33900;53.640;9.942;2023-03-31T14:13:02;14.10;94.50
15099;DHT22;33900;53.640;9.942;2023-03-31T14:15:28;14.20;94.40
15099;DHT22;33900;53.640;9.942;2023-03-31T14:17:54;14.20;94.40
15099;DHT22;33900;53.640;9.942;2023-03-31T14:25:41;14.30;94.20
15099;DHT22;33900;53.640;9.942;2023-03-31T14:30:52;14.40;94.10
15099;DHT22;33900;53.640;9.942;2023-03-31T14:35:56;14.40;93.90
15099;DHT22;33900;53.640;9.942;2023-03-31T14:38:26;14.40;93.80
15099;DHT22;33900;53.640;9.942;2023-03-31T14:40:53;14.40;93.80
15099;DHT22;33900;53.640;9.942;2023-03-31T14:43:22;14.50;93.70
15099;DHT22;33900;53.640;9.942;2023-03-31T14:45:56;14.50;93.70
15099;DHT22;33900;53.640;9.942;2023-03-31T14:48:22;14.50;93.70
15099;DHT22;33900;53.640;9.942;2023-03-31T14:50:48;14.50;93.60
15099;DHT22;33900;53.640;9.942;2023-03-31T14:53:14;14.50;93.60
15099;DHT22;33900;53.640;9.942;2023-03-31T14:55:40;14.60;93.60
15099;DHT22;33900;53.640;9.942;2023-03-31T14:58:07;14.60;93.60
15099;DHT22;33900;53.640;9.942;2023-03-31T15:00:36;14.60;93.50
15099;DHT22;33900;53.640;9.942;2023-03-31T15:03:06;14.60;93.40
15099;DHT22;33900;53.640;9.942;2023-03-31T15:05:34;14.60;93.40
15099;DHT22;33900;53.640;9.942;2023-03-31T15:08:09;14.70;93.40
15099;DHT22;33900;53.640;9.942;2023-03-31T15:10:38;14.70;93.40
15099;DHT22;33900;53.640;9.942;2023-03-31T15:13:14;14.70;93.50
15099;DHT22;33900;53.640;9.942;2023-03-31T15:15:40;14.70;93.40
15099;DHT22;33900;53.640;9.942;2023-03-31T15:18:10;14.70;93.40
15099;DHT22;33900;53.640;9.942;2023-03-31T15:20:37;14.80;93.50
15099;DHT22;33900;53.640;9.942;2023-03-31T15:23:16;14.70;93.40
15099;DHT22;33900;53.640;9.942;2023-03-31T15:25:43;14.80;93.40
15099;DHT22;33900;53.640;9.942;2023-03-31T15:28:12;14.80;93.30
15099;DHT22;33900;53.640;9.942;2023-03-31T15:30:38;14.70;93.30
15099;DHT22;33900;53.640;9.942;2023-03-31T15:33:07;14.70;93.20
15099;DHT22;33900;53.640;9.942;2023-03-31T15:35:39;14.70;93.10
15099;DHT22;33900;53.640;9.942;2023-03-31T15:38:05;14.70;93.00
15099;DHT22;33900;53.640;9.942;2023-03-31T15:40:37;14.70;93.10
15099;DHT22;33900;53.640;9.942;2023-03-31T15:43:05;14.70;93.10
15099;DHT22;33900;53.640;9.942;2023-03-31T15:48:01;14.60;93.10
15099;DHT22;33900;53.640;9.942;2023-03-31T15:50:27;14.60;93.10
15099;DHT22;33900;53.640;9.942;2023-03-31T15:52:54;14.60;93.10
15099;DHT22;33900;53.640;9.942;2023-03-31T15:57:46;14.50;93.10
15099;DHT22;33900;53.640;9.942;2023-03-31T16:00:22;14.50;93.10
15099;DHT22;33900;53.640;9.942;2023-03-31T16:02:57;14.50;93.10
15099;DHT22;33900;53.640;9.942;2023-03-31T16:05:36;14.40;93.10
15099;DHT22;33900;53.640;9.942;2023-03-31T16:08:04;14.40;93.10
15099;DHT22;33900;53.640;9.942;2023-03-31T16:10:35;14.40;93.10
15099;DHT22;33900;53.640;9.942;2023-03-31T16:13:07;14.40;93.10
15099;DHT22;33900;53.640;9.942;2023-03-31T16:15:45;14.40;93.10
15099;DHT22;33900;53.640;9.942;2023-03-31T16:18:17;14.40;93.10
15099;DHT22;33900;53.640;9.942;2023-03-31T16:20:55;14.40;93.10
15099;DHT22;33900;53.640;9.942;2023-03-31T16:23:25;14.40;93.20
15099;DHT22;33900;53.640;9.942;2023-03-31T16:25:52;14.40;93.10
15099;DHT22;33900;53.640;9.942;2023-03-31T16:28:22;14.40;93.10
15099;DHT22;33900;53.640;9.942;2023-03-31T16:30:49;14.40;93.10
15099;DHT22;33900;53.640;9.942;2023-03-31T16:33:15;14.40;93.10
15099;DHT22;33900;53.640;9.942;2023-03-31T16:35:46;14.40;93.10
15099;DHT22;33900;53.640;9.942;2023-03-31T16:38:13;14.40;93.10
15099;DHT22;33900;53.640;9.942;2023-03-31T16:40:45;14.40;93.10
15099;DHT22;33900;53.640;9.942;2023-03-31T16:43:16;14.30;93.00
15099;DHT22;33900;53.640;9.942;2023-03-31T16:45:47;14.40;93.10
15099;DHT22;33900;53.640;9.942;2023-03-31T16:48:17;14.40;93.10
15099;DHT22;33900;53.640;9.942;2023-03-31T16:51:03;14.40;93.10
15099;DHT22;33900;53.640;9.942;2023-03-31T16:56:19;14.30;93.10
15099;DHT22;33900;53.640;9.942;2023-03-31T16:58:46;14.30;93.10
15099;DHT22;33900;53.640;9.942;2023-03-31T17:01:18;14.20;93.10
15099;DHT22;33900;53.640;9.942;2023-03-31T17:03:45;14.20;93.10
15099;DHT22;33900;53.640;9.942;2023-03-31T17:09:45;14.20;93.10
15099;DHT22;33900;53.640;9.942;2023-03-31T17:12:11;14.20;93.20
15099;DHT22;33900;53.640;9.942;2023-03-31T17:14:40;14.20;93.20
15099;DHT22;33900;53.640;9.942;2023-03-31T17:17:07;14.10;93.20
15099;DHT22;33900;53.640;9.942;2023-03-31T17:19:42;14.10;93.20
15099;DHT22;33900;53.640;9.942;2023-03-31T17:22:07;14.10;93.20
15099;DHT22;33900;53.640;9.942;2023-03-31T17:24:33;14.10;93.20
15099;DHT22;33900;53.640;9.942;2023-03-31T17:27:03;14.10;93.20
15099;DHT22;33900;53.640;9.942;2023-03-31T17:29:29;14.20;93.20
15099;DHT22;33900;53.640;9.942;2023-03-31T17:32:00;14.10;93.20
15099;DHT22;33900;53.640;9.942;2023-03-31T17:34:29;14.10;93.20
15099;DHT22;33900;53.640;9.942;2023-03-31T17:36:55;14.10;93.20
15099;DHT22;33900;53.640;9.942;2023-03-31T17:39:21;14.10;93.20
15099;DHT22;33900;53.640;9.942;2023-03-31T17:41:47;14.10;93.50
15099;DHT22;33900;53.640;9.942;2023-03-31T17:44:13;14.10;93.20
15099;DHT22;33900;53.640;9.942;2023-03-31T17:46:40;14.10;93.20
15099;DHT22;33900;53.640;9.942;2023-03-31T17:49:06;14.10;93.20
15099;DHT22;33900;53.640;9.942;2023-03-31T17:51:32;14.10;93.20
15099;DHT22;33900;53.640;9.942;2023-03-31T17:54:01;14.10;93.20
15099;DHT22;33900;53.640;9.942;2023-03-31T17:56:28;14.00;93.10
15099;DHT22;33900;53.640;9.942;2023-03-31T17:58:54;14.10;93.20
15099;DHT22;33900;53.640;9.942;2023-03-31T18:01:20;14.10;93.20